sensor_id;sensor_type;location;lat;lon;timestamp;pressure;altitude;pressure_sealevel;temperature;humidity
64544;BME280;50936;51.660;5.616;2022-07-06T00:00:50;102231.13;;;12.94;82.07
64544;BME280;50936;51.660;5.616;2022-07-06T00:03:17;102227.81;;;12.89;81.35
64544;BME280;50936;51.660;5.616;2022-07-06T00:05:44;102231.66;;;12.85;81.48
64544;BME280;50936;51.660;5.616;2022-07-06T00:08:11;102244.44;;;12.83;82.33
64544;BME280;50936;51.660;5.616;2022-07-06T00:10:38;102244.44;;;12.83;82.60
64544;BME280;50936;51.660;5.616;2022-07-06T00:13:05;102237.25;;;12.82;82.78
64544;BME280;50936;51.660;5.616;2022-07-06T00:15:32;102241.09;;;12.78;82.94
64544;BME280;50936;51.660;5.616;2022-07-06T00:17:59;102243.91;;;12.76;83.65
64544;BME280;50936;51.660;5.616;2022-07-06T00:20:26;102239.53;;;12.74;84.02
64544;BME280;50936;51.660;5.616;2022-07-06T00:22:53;102241.47;;;12.71;84.40
64544;BME280;50936;51.660;5.616;2022-07-06T00:25:19;102236.13;;;12.70;85.13
64544;BME280;50936;51.660;5.616;2022-07-06T00:27:46;102250.72;;;12.67;85.01
64544;BME280;50936;51.660;5.616;2022-07-06T00:30:13;102249.22;;;12.62;85.29
64544;BME280;50936;51.660;5.616;2022-07-06T00:32:40;102245.81;;;12.58;85.25
64544;BME280;50936;51.660;5.616;2022-07-06T00:35:07;102244.22;;;12.54;85.36
64544;BME280;50936;51.660;5.616;2022-07-06T00:37:35;102243.53;;;12.50;85.60
64544;BME280;50936;51.660;5.616;2022-07-06T00:40:02;102235.41;;;12.50;86.24
64544;BME280;50936;51.660;5.616;2022-07-06T00:42:30;102240.91;;;12.49;87.12
64544;BME280;50936;51.660;5.616;2022-07-06T00:45:05;102240.75;;;12.52;87.47
64544;BME280;50936;51.660;5.616;2022-07-06T00:47:32;102238.09;;;12.50;87.57
64544;BME280;50936;51.660;5.616;2022-07-06T00:49:59;102231.81;;;12.50;87.90
64544;BME280;50936;51.660;5.616;2022-07-06T00:52:47;102239.16;;;12.48;88.35
64544;BME280;50936;51.660;5.616;2022-07-06T00:55:17;102237.59;;;12.44;88.69
64544;BME280;50936;51.660;5.616;2022-07-06T00:57:47;102236.19;;;12.37;89.02
64544;BME280;50936;51.660;5.616;2022-07-06T01:00:17;102234.75;;;12.29;89.75
64544;BME280;50936;51.660;5.616;2022-07-06T01:02:46;102230.47;;;12.25;90.11
64544;BME280;50936;51.660;5.616;2022-07-06T01:05:14;102229.75;;;12.22;90.38
64544;BME280;50936;51.660;5.616;2022-07-06T01:07:44;102233.50;;;12.19;90.87
64544;BME280;50936;51.660;5.616;2022-07-06T01:10:15;102231.75;;;12.18;91.18
64544;BME280;50936;51.660;5.616;2022-07-06T01:12:45;102237.34;;;12.15;91.32
64544;BME280;50936;51.660;5.616;2022-07-06T01:15:17;102232.06;;;12.12;91.80
64544;BME280;50936;51.660;5.616;2022-07-06T01:17:45;102229.56;;;12.09;92.20
64544;BME280;50936;51.660;5.616;2022-07-06T01:20:25;102234.00;;;12.10;92.42
64544;BME280;50936;51.660;5.616;2022-07-06T01:22:53;102228.72;;;12.07;92.64
64544;BME280;50936;51.660;5.616;2022-07-06T01:25:35;102229.78;;;12.04;92.92
64544;BME280;50936;51.660;5.616;2022-07-06T01:28:02;102243.41;;;12.03;93.08
64544;BME280;50936;51.660;5.616;2022-07-06T01:30:29;102231.72;;;12.02;93.50
64544;BME280;50936;51.660;5.616;2022-07-06T01:32:56;102236.41;;;11.99;92.90
64544;BME280;50936;51.660;5.616;2022-07-06T01:35:24;102237.34;;;11.98;93.07
64544;BME280;50936;51.660;5.616;2022-07-06T01:37:52;102239.91;;;12.01;93.48
64544;BME280;50936;51.660;5.616;2022-07-06T01:40:19;102231.63;;;12.04;93.64
64544;BME280;50936;51.660;5.616;2022-07-06T01:42:46;102236.84;;;12.07;93.41
64544;BME280;50936;51.660;5.616;2022-07-06T01:45:13;102225.41;;;12.02;93.56
64544;BME280;50936;51.660;5.616;2022-07-06T01:47:40;102231.16;;;11.96;93.95
64544;BME280;50936;51.660;5.616;2022-07-06T01:50:08;102231.44;;;11.89;94.33
64544;BME280;50936;51.660;5.616;2022-07-06T01:52:41;102231.78;;;11.83;94.65
64544;BME280;50936;51.660;5.616;2022-07-06T01:55:08;102233.78;;;11.80;94.93
64544;BME280;50936;51.660;5.616;2022-07-06T01:57:36;102233.94;;;11.77;95.36
64544;BME280;50936;51.660;5.616;2022-07-06T02:00:06;102226.03;;;11.72;95.69
64544;BME280;50936;51.660;5.616;2022-07-06T02:02:43;102232.56;;;11.68;95.85
64544;BME280;50936;51.660;5.616;2022-07-06T02:05:11;102234.63;;;11.63;96.26
64544;BME280;50936;51.660;5.616;2022-07-06T02:07:38;102241.97;;;11.61;96.29
64544;BME280;50936;51.660;5.616;2022-07-06T02:10:06;102238.59;;;11.55;96.37
64544;BME280;50936;51.660;5.616;2022-07-06T02:12:34;102240.69;;;11.50;96.86
64544;BME280;50936;51.660;5.616;2022-07-06T02:15:00;102231.75;;;11.48;97.08
64544;BME280;50936;51.660;5.616;2022-07-06T02:17:27;102228.25;;;11.46;97.14
64544;BME280;50936;51.660;5.616;2022-07-06T02:19:55;102245.53;;;11.44;96.86
64544;BME280;50936;51.660;5.616;2022-07-06T02:22:22;102242.91;;;11.42;97.20
64544;BME280;50936;51.660;5.616;2022-07-06T02:24:49;102243.03;;;11.39;97.44
64544;BME280;50936;51.660;5.616;2022-07-06T02:27:16;102244.97;;;11.37;97.55
64544;BME280;50936;51.660;5.616;2022-07-06T02:29:44;102248.47;;;11.39;97.29
64544;BME280;50936;51.660;5.616;2022-07-06T02:32:12;102247.66;;;11.37;97.35
64544;BME280;50936;51.660;5.616;2022-07-06T02:34:39;102241.47;;;11.35;97.43
64544;BME280;50936;51.660;5.616;2022-07-06T02:37:06;102238.09;;;11.30;97.50
64544;BME280;50936;51.660;5.616;2022-07-06T02:39:33;102236.38;;;11.29;97.62
64544;BME280;50936;51.660;5.616;2022-07-06T02:42:00;102236.38;;;11.29;97.70
64544;BME280;50936;51.660;5.616;2022-07-06T02:44:27;102242.72;;;11.28;97.81
64544;BME280;50936;51.660;5.616;2022-07-06T02:46:54;102237.38;;;11.26;97.68
64544;BME280;50936;51.660;5.616;2022-07-06T02:49:21;102234.59;;;11.28;97.86
64544;BME280;50936;51.660;5.616;2022-07-06T02:51:49;102239.06;;;11.29;97.79
64544;BME280;50936;51.660;5.616;2022-07-06T02:54:16;102232.94;;;11.25;97.65
64544;BME280;50936;51.660;5.616;2022-07-06T02:56:43;102243.97;;;11.21;97.92
64544;BME280;50936;51.660;5.616;2022-07-06T02:59:11;102247.78;;;11.16;98.25
64544;BME280;50936;51.660;5.616;2022-07-06T03:01:41;102247.94;;;11.13;98.74
64544;BME280;50936;51.660;5.616;2022-07-06T03:04:08;102246.19;;;11.12;98.71
64544;BME280;50936;51.660;5.616;2022-07-06T03:06:35;102244.44;;;11.11;98.91
64544;BME280;50936;51.660;5.616;2022-07-06T03:09:02;102242.78;;;11.09;98.78
64544;BME280;50936;51.660;5.616;2022-07-06T03:11:30;102246.19;;;11.12;99.22
64544;BME280;50936;51.660;5.616;2022-07-06T03:13:57;102258.59;;;11.16;99.39
64544;BME280;50936;51.660;5.616;2022-07-06T03:16:24;102259.19;;;11.23;99.28
64544;BME280;50936;51.660;5.616;2022-07-06T03:18:51;102259.91;;;11.27;98.96
64544;BME280;50936;51.660;5.616;2022-07-06T03:21:18;102258.81;;;11.31;98.90
64544;BME280;50936;51.660;5.616;2022-07-06T03:23:45;102253.25;;;11.34;98.71
64544;BME280;50936;51.660;5.616;2022-07-06T03:26:12;102261.03;;;11.40;98.69
64544;BME280;50936;51.660;5.616;2022-07-06T03:28:39;102256.28;;;11.45;98.45
64544;BME280;50936;51.660;5.616;2022-07-06T03:31:06;102255.16;;;11.49;98.10
64544;BME280;50936;51.660;5.616;2022-07-06T03:33:33;102248.72;;;11.52;98.08
64544;BME280;50936;51.660;5.616;2022-07-06T03:36:01;102252.06;;;11.57;97.80
64544;BME280;50936;51.660;5.616;2022-07-06T03:38:28;102254.53;;;11.62;97.80
64544;BME280;50936;51.660;5.616;2022-07-06T03:40:55;102257.06;;;11.65;97.64
64544;BME280;50936;51.660;5.616;2022-07-06T03:43:22;102253.34;;;11.67;97.46
64544;BME280;50936;51.660;5.616;2022-07-06T03:45:49;102250.66;;;11.67;97.18
64544;BME280;50936;51.660;5.616;2022-07-06T03:48:17;102247.06;;;11.67;97.49
64544;BME280;50936;51.660;5.616;2022-07-06T03:50:44;102255.19;;;11.67;97.41
64544;BME280;50936;51.660;5.616;2022-07-06T03:53:11;102254.06;;;11.71;97.42
64544;BME280;50936;51.660;5.616;2022-07-06T03:55:38;102253.03;;;11.73;97.24
64544;BME280;50936;51.660;5.616;2022-07-06T03:58:08;102250.25;;;11.75;96.91
64544;BME280;50936;51.660;5.616;2022-07-06T04:00:37;102253.88;;;11.74;96.73
64544;BME280;50936;51.660;5.616;2022-07-06T04:03:09;102262.13;;;11.72;97.19
64544;BME280;50936;51.660;5.616;2022-07-06T04:05:42;102260.44;;;11.70;97.38
64544;BME280;50936;51.660;5.616;2022-07-06T04:08:09;102256.78;;;11.71;97.43
64544;BME280;50936;51.660;5.616;2022-07-06T04:10:41;102251.38;;;11.71;97.66
64544;BME280;50936;51.660;5.616;2022-07-06T04:13:08;102252.16;;;11.73;97.58
64544;BME280;50936;51.660;5.616;2022-07-06T04:15:35;102259.16;;;11.77;97.43
64544;BME280;50936;51.660;5.616;2022-07-06T04:18:03;102258.13;;;11.80;97.31
64544;BME280;50936;51.660;5.616;2022-07-06T04:20:36;102253.59;;;11.80;97.20
64544;BME280;50936;51.660;5.616;2022-07-06T04:23:03;102249.91;;;11.81;97.24
64544;BME280;50936;51.660;5.616;2022-07-06T04:25:30;102244.50;;;11.81;96.98
64544;BME280;50936;51.660;5.616;2022-07-06T04:28:01;102243.78;;;11.78;97.17
64544;BME280;50936;51.660;5.616;2022-07-06T04:30:30;102243.06;;;11.74;97.53
64544;BME280;50936;51.660;5.616;2022-07-06T04:32:57;102246.59;;;11.76;97.60
64544;BME280;50936;51.660;5.616;2022-07-06T04:35:27;102247.31;;;11.80;97.80
64544;BME280;50936;51.660;5.616;2022-07-06T04:37:55;102244.34;;;11.84;97.70
64544;BME280;50936;51.660;5.616;2022-07-06T04:40:22;102251.34;;;11.88;97.57
64544;BME280;50936;51.660;5.616;2022-07-06T04:42:53;102250.19;;;11.94;97.04
64544;BME280;50936;51.660;5.616;2022-07-06T04:45:21;102241.81;;;11.99;97.10
64544;BME280;50936;51.660;5.616;2022-07-06T04:47:48;102246.09;;;12.03;96.79
64544;BME280;50936;51.660;5.616;2022-07-06T04:50:16;102241.31;;;12.08;96.39
64544;BME280;50936;51.660;5.616;2022-07-06T04:52:45;102238.28;;;12.14;96.52
64544;BME280;50936;51.660;5.616;2022-07-06T04:55:12;102236.22;;;12.19;96.05
64544;BME280;50936;51.660;5.616;2022-07-06T04:57:41;102240.34;;;12.26;95.50
64544;BME280;50936;51.660;5.616;2022-07-06T05:00:11;102241.91;;;12.30;95.09
64544;BME280;50936;51.660;5.616;2022-07-06T05:02:39;102243.66;;;12.31;95.10
64544;BME280;50936;51.660;5.616;2022-07-06T05:05:06;102249.09;;;12.31;95.28
64544;BME280;50936;51.660;5.616;2022-07-06T05:07:36;102241.75;;;12.33;95.46
64544;BME280;50936;51.660;5.616;2022-07-06T05:10:10;102249.44;;;12.41;95.67
64544;BME280;50936;51.660;5.616;2022-07-06T05:12:41;102254.28;;;12.52;95.07
64544;BME280;50936;51.660;5.616;2022-07-06T05:15:08;102260.16;;;12.60;94.21
64544;BME280;50936;51.660;5.616;2022-07-06T05:17:36;102256.31;;;12.64;94.64
64544;BME280;50936;51.660;5.616;2022-07-06T05:20:05;102260.25;;;12.75;94.15
64544;BME280;50936;51.660;5.616;2022-07-06T05:22:36;102257.22;;;12.81;93.45
64544;BME280;50936;51.660;5.616;2022-07-06T05:25:11;102266.84;;;12.86;93.55
64544;BME280;50936;51.660;5.616;2022-07-06T05:27:39;102271.03;;;12.92;93.63
64544;BME280;50936;51.660;5.616;2022-07-06T05:30:07;102273.31;;;13.00;93.86
64544;BME280;50936;51.660;5.616;2022-07-06T05:32:35;102268.56;;;13.03;93.68
64544;BME280;50936;51.660;5.616;2022-07-06T05:35:02;102268.75;;;13.00;93.58
64544;BME280;50936;51.660;5.616;2022-07-06T05:37:49;102269.09;;;12.94;94.18
64544;BME280;50936;51.660;5.616;2022-07-06T05:40:16;102266.41;;;12.94;94.85
64544;BME280;50936;51.660;5.616;2022-07-06T05:42:43;102260.59;;;13.00;94.80
64544;BME280;50936;51.660;5.616;2022-07-06T05:45:10;102280.03;;;13.08;94.89
64544;BME280;50936;51.660;5.616;2022-07-06T05:47:37;102271.75;;;13.12;94.88
64544;BME280;50936;51.660;5.616;2022-07-06T05:50:23;102275.56;;;13.23;94.53
64544;BME280;50936;51.660;5.616;2022-07-06T05:52:59;102276.06;;;13.32;93.66
64544;BME280;50936;51.660;5.616;2022-07-06T05:55:41;102278.22;;;13.41;93.43
64544;BME280;50936;51.660;5.616;2022-07-06T05:58:08;102279.41;;;13.51;92.82
64544;BME280;50936;51.660;5.616;2022-07-06T06:00:37;102286.53;;;13.68;92.22
64544;BME280;50936;51.660;5.616;2022-07-06T06:03:10;102286.41;;;13.85;91.54
64544;BME280;50936;51.660;5.616;2022-07-06T06:05:37;102282.75;;;14.01;90.08
64544;BME280;50936;51.660;5.616;2022-07-06T06:08:05;102281.06;;;14.14;89.63
64544;BME280;50936;51.660;5.616;2022-07-06T06:10:33;102282.81;;;14.30;89.22
64544;BME280;50936;51.660;5.616;2022-07-06T06:13:04;102283.59;;;14.46;88.38
64544;BME280;50936;51.660;5.616;2022-07-06T06:15:32;102275.66;;;14.57;88.63
64544;BME280;50936;51.660;5.616;2022-07-06T06:17:59;102280.16;;;14.73;88.40
64544;BME280;50936;51.660;5.616;2022-07-06T06:20:26;102288.94;;;14.91;88.35
64544;BME280;50936;51.660;5.616;2022-07-06T06:22:55;102287.53;;;15.12;87.54
64544;BME280;50936;51.660;5.616;2022-07-06T06:25:31;102286.47;;;15.42;86.52
64544;BME280;50936;51.660;5.616;2022-07-06T06:27:59;102290.34;;;15.80;83.38
64544;BME280;50936;51.660;5.616;2022-07-06T06:30:27;102283.81;;;16.08;81.11
64544;BME280;50936;51.660;5.616;2022-07-06T06:33:08;102279.38;;;16.20;80.26
64544;BME280;50936;51.660;5.616;2022-07-06T06:35:38;102278.94;;;16.26;78.75
64544;BME280;50936;51.660;5.616;2022-07-06T06:38:09;102277.97;;;16.27;78.68
64544;BME280;50936;51.660;5.616;2022-07-06T06:40:36;102282.44;;;16.28;78.31
64544;BME280;50936;51.660;5.616;2022-07-06T06:43:03;102278.50;;;16.32;77.70
64544;BME280;50936;51.660;5.616;2022-07-06T06:45:33;102279.81;;;16.39;77.15
64544;BME280;50936;51.660;5.616;2022-07-06T06:48:00;102281.75;;;16.50;76.59
64544;BME280;50936;51.660;5.616;2022-07-06T06:50:27;102277.63;;;16.57;76.98
64544;BME280;50936;51.660;5.616;2022-07-06T06:52:55;102290.16;;;16.72;76.56
64544;BME280;50936;51.660;5.616;2022-07-06T06:55:21;102290.94;;;16.87;75.45
64544;BME280;50936;51.660;5.616;2022-07-06T06:57:48;102291.53;;;17.04;75.17
64544;BME280;50936;51.660;5.616;2022-07-06T07:00:15;102295.38;;;17.25;73.58
64544;BME280;50936;51.660;5.616;2022-07-06T07:02:42;102292.25;;;17.43;72.19
64544;BME280;50936;51.660;5.616;2022-07-06T07:05:10;102304.28;;;17.64;72.04
64544;BME280;50936;51.660;5.616;2022-07-06T07:07:37;102298.34;;;17.70;71.17
64544;BME280;50936;51.660;5.616;2022-07-06T07:10:05;102298.66;;;17.79;70.22
64544;BME280;50936;51.660;5.616;2022-07-06T07:12:32;102302.94;;;17.94;69.22
64544;BME280;50936;51.660;5.616;2022-07-06T07:15:00;102295.03;;;18.02;69.69
64544;BME280;50936;51.660;5.616;2022-07-06T07:17:27;102294.44;;;18.21;66.70
64544;BME280;50936;51.660;5.616;2022-07-06T07:19:54;102300.09;;;18.54;64.92
64544;BME280;50936;51.660;5.616;2022-07-06T07:22:23;102300.09;;;18.76;64.22
64544;BME280;50936;51.660;5.616;2022-07-06T07:24:50;102303.94;;;19.08;62.69
64544;BME280;50936;51.660;5.616;2022-07-06T07:27:17;102301.91;;;19.76;61.16
64544;BME280;50936;51.660;5.616;2022-07-06T07:29:44;102301.00;;;20.50;61.04
64544;BME280;50936;51.660;5.616;2022-07-06T07:32:11;102304.94;;;21.38;58.59
64544;BME280;50936;51.660;5.616;2022-07-06T07:34:38;102303.66;;;22.20;55.33
64544;BME280;50936;51.660;5.616;2022-07-06T07:37:05;102301.13;;;22.84;49.74
64544;BME280;50936;51.660;5.616;2022-07-06T07:39:31;102312.72;;;23.25;51.09
64544;BME280;50936;51.660;5.616;2022-07-06T07:41:59;102309.13;;;23.78;47.85
64544;BME280;50936;51.660;5.616;2022-07-06T07:44:25;102311.25;;;24.02;46.68
64544;BME280;50936;51.660;5.616;2022-07-06T07:46:53;102306.78;;;23.83;45.45
64544;BME280;50936;51.660;5.616;2022-07-06T07:49:20;102309.78;;;23.72;45.50
64544;BME280;50936;51.660;5.616;2022-07-06T07:51:48;102305.66;;;23.76;45.21
64544;BME280;50936;51.660;5.616;2022-07-06T07:54:15;102306.00;;;23.28;44.78
64544;BME280;50936;51.660;5.616;2022-07-06T07:56:43;102304.09;;;23.00;45.12
64544;BME280;50936;51.660;5.616;2022-07-06T07:59:10;102300.88;;;23.15;46.62
64544;BME280;50936;51.660;5.616;2022-07-06T08:01:38;102304.06;;;23.38;46.83
64544;BME280;50936;51.660;5.616;2022-07-06T08:04:05;102307.56;;;23.94;46.71
64544;BME280;50936;51.660;5.616;2022-07-06T08:06:34;102303.59;;;24.14;44.12
64544;BME280;50936;51.660;5.616;2022-07-06T08:09:01;102296.56;;;24.20;44.24
64544;BME280;50936;51.660;5.616;2022-07-06T08:11:29;102290.03;;;24.47;41.51
64544;BME280;50936;51.660;5.616;2022-07-06T08:13:57;102290.50;;;24.16;41.39
64544;BME280;50936;51.660;5.616;2022-07-06T08:16:23;102295.75;;;23.83;42.51
64544;BME280;50936;51.660;5.616;2022-07-06T08:18:50;102294.69;;;23.31;43.15
64544;BME280;50936;51.660;5.616;2022-07-06T08:21:17;102285.44;;;22.94;44.08
64544;BME280;50936;51.660;5.616;2022-07-06T08:23:50;102284.63;;;22.84;45.47
64544;BME280;50936;51.660;5.616;2022-07-06T08:26:18;102289.31;;;23.01;45.62
64544;BME280;50936;51.660;5.616;2022-07-06T08:28:44;102291.59;;;23.16;44.66
64544;BME280;50936;51.660;5.616;2022-07-06T08:31:12;102289.94;;;22.95;43.52
64544;BME280;50936;51.660;5.616;2022-07-06T08:33:59;102273.91;;;22.81;45.18
64544;BME280;50936;51.660;5.616;2022-07-06T08:36:27;102277.81;;;22.88;44.63
64544;BME280;50936;51.660;5.616;2022-07-06T08:38:54;102267.91;;;22.95;43.50
64544;BME280;50936;51.660;5.616;2022-07-06T08:41:23;102283.03;;;22.81;42.67
64544;BME280;50936;51.660;5.616;2022-07-06T08:43:52;102274.84;;;22.72;42.04
64544;BME280;50936;51.660;5.616;2022-07-06T08:46:21;102270.88;;;22.46;42.12
64544;BME280;50936;51.660;5.616;2022-07-06T08:48:49;102271.66;;;22.00;43.07
64544;BME280;50936;51.660;5.616;2022-07-06T08:51:18;102277.19;;;21.80;43.14
64544;BME280;50936;51.660;5.616;2022-07-06T08:53:55;102276.03;;;21.83;44.12
64544;BME280;50936;51.660;5.616;2022-07-06T08:56:24;102270.94;;;21.98;44.75
64544;BME280;50936;51.660;5.616;2022-07-06T08:58:52;102262.66;;;22.17;44.56
64544;BME280;50936;51.660;5.616;2022-07-06T09:01:21;102264.69;;;22.35;44.96
64544;BME280;50936;51.660;5.616;2022-07-06T09:03:51;102266.97;;;22.39;43.84
64544;BME280;50936;51.660;5.616;2022-07-06T09:06:26;102261.41;;;22.02;44.14
64544;BME280;50936;51.660;5.616;2022-07-06T09:08:56;102265.63;;;21.67;43.55
64544;BME280;50936;51.660;5.616;2022-07-06T09:11:24;102263.13;;;21.34;43.47
64544;BME280;50936;51.660;5.616;2022-07-06T09:13:52;102260.06;;;21.28;44.30
64544;BME280;50936;51.660;5.616;2022-07-06T09:16:26;102268.75;;;21.33;44.79
64544;BME280;50936;51.660;5.616;2022-07-06T09:19:05;102274.25;;;21.33;43.70
64544;BME280;50936;51.660;5.616;2022-07-06T09:21:34;102271.19;;;21.17;44.45
64544;BME280;50936;51.660;5.616;2022-07-06T09:24:09;102273.34;;;21.03;44.69
64544;BME280;50936;51.660;5.616;2022-07-06T09:26:39;102262.34;;;21.03;45.64
64544;BME280;50936;51.660;5.616;2022-07-06T09:29:08;102268.16;;;21.20;45.46
64544;BME280;50936;51.660;5.616;2022-07-06T09:31:35;102266.16;;;21.22;45.67
64544;BME280;50936;51.660;5.616;2022-07-06T09:34:07;102272.22;;;21.25;42.65
64544;BME280;50936;51.660;5.616;2022-07-06T09:36:42;102270.19;;;21.18;43.03
64544;BME280;50936;51.660;5.616;2022-07-06T09:39:19;102271.38;;;21.34;42.62
64544;BME280;50936;51.660;5.616;2022-07-06T09:41:53;102276.34;;;21.50;40.89
64544;BME280;50936;51.660;5.616;2022-07-06T09:44:34;102278.81;;;21.63;41.50
64544;BME280;50936;51.660;5.616;2022-07-06T09:47:10;102280.09;;;21.79;42.48
64544;BME280;50936;51.660;5.616;2022-07-06T09:49:38;102278.03;;;21.90;42.08
64544;BME280;50936;51.660;5.616;2022-07-06T09:52:08;102285.28;;;21.91;40.47
64544;BME280;50936;51.660;5.616;2022-07-06T09:54:38;102275.44;;;21.99;41.56
64544;BME280;50936;51.660;5.616;2022-07-06T09:57:07;102286.72;;;22.15;41.56
64544;BME280;50936;51.660;5.616;2022-07-06T09:59:36;102277.41;;;22.16;40.93
64544;BME280;50936;51.660;5.616;2022-07-06T10:02:06;102288.16;;;22.00;41.15
64544;BME280;50936;51.660;5.616;2022-07-06T10:04:34;102287.16;;;21.81;41.25
64544;BME280;50936;51.660;5.616;2022-07-06T10:07:02;102282.13;;;21.67;42.14
64544;BME280;50936;51.660;5.616;2022-07-06T10:09:30;102282.97;;;21.58;42.13
64544;BME280;50936;51.660;5.616;2022-07-06T10:12:01;102287.03;;;21.53;42.43
64544;BME280;50936;51.660;5.616;2022-07-06T10:14:31;102283.88;;;21.58;41.90
64544;BME280;50936;51.660;5.616;2022-07-06T10:17:01;102288.19;;;21.70;42.22
64544;BME280;50936;51.660;5.616;2022-07-06T10:19:32;102283.69;;;21.79;42.63
64544;BME280;50936;51.660;5.616;2022-07-06T10:22:01;102285.56;;;21.88;40.94
64544;BME280;50936;51.660;5.616;2022-07-06T10:24:30;102295.13;;;21.84;40.11
64544;BME280;50936;51.660;5.616;2022-07-06T10:27:01;102289.50;;;21.76;41.14
64544;BME280;50936;51.660;5.616;2022-07-06T10:29:30;102286.16;;;21.82;40.86
64544;BME280;50936;51.660;5.616;2022-07-06T10:31:59;102295.16;;;21.75;40.58
64544;BME280;50936;51.660;5.616;2022-07-06T10:34:27;102290.22;;;21.59;41.50
64544;BME280;50936;51.660;5.616;2022-07-06T10:36:54;102279.94;;;21.51;42.03
64544;BME280;50936;51.660;5.616;2022-07-06T10:39:37;102287.13;;;21.42;41.79
64544;BME280;50936;51.660;5.616;2022-07-06T10:50:38;102281.19;;;21.37;41.55
64544;BME280;50936;51.660;5.616;2022-07-06T10:53:14;102274.00;;;21.46;40.47
64544;BME280;50936;51.660;5.616;2022-07-06T10:55:45;102281.31;;;21.35;41.04
64544;BME280;50936;51.660;5.616;2022-07-06T10:58:14;102282.81;;;21.40;41.44
64544;BME280;50936;51.660;5.616;2022-07-06T11:03:44;102272.25;;;21.74;40.76
64544;BME280;50936;51.660;5.616;2022-07-06T11:06:24;102274.59;;;21.69;40.63
64544;BME280;50936;51.660;5.616;2022-07-06T11:11:40;102272.56;;;21.71;39.93
64544;BME280;50936;51.660;5.616;2022-07-06T11:14:17;102278.66;;;21.75;39.82
64544;BME280;50936;51.660;5.616;2022-07-06T11:19:16;102275.16;;;21.82;40.25
64544;BME280;50936;51.660;5.616;2022-07-06T11:22:04;102268.78;;;22.11;39.48
64544;BME280;50936;51.660;5.616;2022-07-06T11:24:34;102273.06;;;22.23;39.75
64544;BME280;50936;51.660;5.616;2022-07-06T11:27:11;102277.72;;;22.33;39.00
64544;BME280;50936;51.660;5.616;2022-07-06T11:29:39;102265.50;;;22.45;39.26
64544;BME280;50936;51.660;5.616;2022-07-06T11:32:07;102262.78;;;22.73;40.02
64544;BME280;50936;51.660;5.616;2022-07-06T11:34:42;102260.00;;;23.10;38.24
64544;BME280;50936;51.660;5.616;2022-07-06T11:37:14;102254.72;;;23.17;37.52
64544;BME280;50936;51.660;5.616;2022-07-06T11:39:42;102257.41;;;23.09;37.63
64544;BME280;50936;51.660;5.616;2022-07-06T11:42:12;102255.84;;;23.24;38.00
64544;BME280;50936;51.660;5.616;2022-07-06T11:44:41;102258.88;;;23.49;37.27
64544;BME280;50936;51.660;5.616;2022-07-06T11:47:10;102243.47;;;23.64;37.84
64544;BME280;50936;51.660;5.616;2022-07-06T11:49:38;102246.22;;;24.00;37.45
64544;BME280;50936;51.660;5.616;2022-07-06T11:52:08;102238.91;;;24.43;36.26
64544;BME280;50936;51.660;5.616;2022-07-06T11:54:37;102229.19;;;24.57;35.46
64544;BME280;50936;51.660;5.616;2022-07-06T11:57:08;102233.50;;;24.59;34.87
64544;BME280;50936;51.660;5.616;2022-07-06T11:59:38;102230.66;;;24.51;35.65
64544;BME280;50936;51.660;5.616;2022-07-06T12:02:09;102228.84;;;24.34;36.02
64544;BME280;50936;51.660;5.616;2022-07-06T12:04:42;102237.25;;;24.24;36.66
64544;BME280;50936;51.660;5.616;2022-07-06T12:07:12;102228.84;;;24.34;36.18
64544;BME280;50936;51.660;5.616;2022-07-06T12:09:43;102223.38;;;24.42;35.95
64544;BME280;50936;51.660;5.616;2022-07-06T12:12:12;102220.72;;;24.58;35.50
64544;BME280;50936;51.660;5.616;2022-07-06T12:14:41;102218.97;;;24.57;34.66
64544;BME280;50936;51.660;5.616;2022-07-06T12:17:10;102221.91;;;24.30;34.93
64544;BME280;50936;51.660;5.616;2022-07-06T12:19:40;102208.72;;;24.15;35.52
64544;BME280;50936;51.660;5.616;2022-07-06T12:22:09;102210.78;;;24.13;35.82
64544;BME280;50936;51.660;5.616;2022-07-06T12:24:37;102205.19;;;24.31;35.36
64544;BME280;50936;51.660;5.616;2022-07-06T12:27:11;102199.53;;;24.33;35.84
64544;BME280;50936;51.660;5.616;2022-07-06T12:29:39;102207.50;;;24.44;35.94
64544;BME280;50936;51.660;5.616;2022-07-06T12:32:07;102211.97;;;24.71;35.83
64544;BME280;50936;51.660;5.616;2022-07-06T12:34:41;102213.25;;;24.93;34.46
64544;BME280;50936;51.660;5.616;2022-07-06T12:37:09;102206.03;;;25.01;35.25
64544;BME280;50936;51.660;5.616;2022-07-06T12:39:46;102209.56;;;25.35;35.16
64544;BME280;50936;51.660;5.616;2022-07-06T12:42:15;102208.19;;;25.64;34.46
64544;BME280;50936;51.660;5.616;2022-07-06T12:44:48;102201.63;;;25.98;34.35
64544;BME280;50936;51.660;5.616;2022-07-06T12:47:24;102197.38;;;26.35;34.64
64544;BME280;50936;51.660;5.616;2022-07-06T12:50:11;102210.69;;;26.87;31.40
64544;BME280;50936;51.660;5.616;2022-07-06T12:52:39;102197.63;;;26.57;30.99
64544;BME280;50936;51.660;5.616;2022-07-06T12:55:07;102196.72;;;26.25;31.83
64544;BME280;50936;51.660;5.616;2022-07-06T12:57:43;102201.53;;;26.23;32.29
64544;BME280;50936;51.660;5.616;2022-07-06T13:00:15;102194.72;;;25.94;32.17
64544;BME280;50936;51.660;5.616;2022-07-06T13:02:48;102203.34;;;25.66;32.99
64544;BME280;50936;51.660;5.616;2022-07-06T13:05:36;102204.38;;;25.49;32.51
64544;BME280;50936;51.660;5.616;2022-07-06T13:08:05;102199.06;;;24.88;33.47
64544;BME280;50936;51.660;5.616;2022-07-06T13:10:32;102189.66;;;24.65;34.33
64544;BME280;50936;51.660;5.616;2022-07-06T13:13:01;102184.94;;;24.91;35.14
64544;BME280;50936;51.660;5.616;2022-07-06T13:15:28;102185.69;;;25.34;33.80
64544;BME280;50936;51.660;5.616;2022-07-06T13:17:55;102194.88;;;25.43;33.28